createdAt,value
2018-02-07T00:00:54.249Z,71.20
2018-02-07T00:03:20.423Z,71.20
2018-02-07T00:05:46.655Z,71.50
2018-02-07T00:08:12.809Z,71.50
2018-02-07T00:10:39.008Z,71.90
2018-02-07T00:13:05.181Z,71.90
2018-02-07T00:15:31.373Z,71.50
2018-02-07T00:17:57.912Z,71.30
2018-02-07T00:20:24.841Z,72.10
2018-02-07T00:22:52.578Z,72.00
2018-02-07T00:25:18.904Z,72.00
2018-02-07T00:27:45.053Z,71.60
2018-02-07T00:30:11.268Z,71.40
2018-02-07T00:32:37.465Z,72.20
2018-02-07T00:35:18.555Z,72.30
2018-02-07T00:37:44.760Z,72.10
2018-02-07T00:40:11.670Z,72.60
2018-02-07T00:42:37.891Z,72.30
2018-02-07T00:45:04.076Z,72.80
2018-02-07T00:47:30.258Z,71.80
2018-02-07T00:49:56.405Z,72.40
2018-02-07T00:52:23.914Z,72.00
2018-02-07T00:54:50.066Z,72.00
2018-02-07T00:57:16.250Z,72.30
2018-02-07T00:59:42.431Z,72.00
2018-02-07T01:02:08.662Z,72.50
2018-02-07T01:04:34.835Z,72.30
2018-02-07T01:07:01.106Z,72.40
2018-02-07T01:09:27.303Z,72.60
2018-02-07T01:11:53.441Z,72.20
2018-02-07T01:14:19.624Z,72.60
2018-02-07T01:16:47.476Z,72.60
2018-02-07T01:19:13.654Z,72.60
2018-02-07T01:21:39.855Z,72.60
2018-02-07T01:24:06.088Z,72.60
2018-02-07T01:26:32.427Z,72.90
2018-02-07T01:28:58.702Z,73.00
2018-02-07T01:31:24.836Z,73.00
2018-02-07T01:33:50.974Z,73.10
2018-02-07T01:36:17.172Z,73.20
2018-02-07T01:38:43.325Z,73.50
2018-02-07T01:41:09.518Z,73.80
2018-02-07T01:43:35.658Z,73.80
2018-02-07T01:46:01.867Z,74.20
2018-02-07T01:48:28.004Z,73.60
2018-02-07T01:50:54.132Z,74.10
2018-02-07T01:53:20.316Z,73.60
2018-02-07T01:55:47.210Z,74.10
2018-02-07T01:58:13.759Z,73.60
2018-02-07T02:00:40.654Z,74.50
2018-02-07T02:03:06.889Z,74.10
2018-02-07T02:05:33.058Z,74.10
2018-02-07T02:07:59.241Z,74.10
2018-02-07T02:10:25.382Z,73.60
2018-02-07T02:12:51.570Z,74.00
2018-02-07T02:15:18.532Z,74.10
2018-02-07T02:17:44.746Z,72.90
2018-02-07T02:20:11.790Z,73.30
2018-02-07T02:22:37.950Z,72.90
2018-02-07T02:25:04.139Z,72.80
2018-02-07T02:27:30.373Z,73.20
2018-02-07T02:39:46.643Z,73.30
2018-02-07T02:42:13.536Z,73.40
2018-02-07T02:44:39.705Z,73.00
2018-02-07T02:47:05.877Z,73.30
2018-02-07T02:49:32.058Z,73.80
2018-02-07T02:51:58.322Z,72.80
2018-02-07T02:54:24.489Z,72.80
2018-02-07T02:56:50.661Z,72.50
2018-02-07T02:59:17.587Z,72.80
2018-02-07T03:01:43.744Z,72.60
2018-02-07T03:04:09.921Z,72.70
2018-02-07T03:06:36.090Z,72.30
2018-02-07T03:09:03.031Z,73.00
2018-02-07T03:11:29.979Z,73.00
2018-02-07T03:13:56.904Z,72.80
2018-02-07T03:16:23.110Z,72.30
2018-02-07T03:18:49.258Z,72.30
2018-02-07T03:21:16.882Z,72.80
2018-02-07T03:23:43.099Z,72.30
2018-02-07T03:26:09.302Z,72.40
2018-02-07T03:28:36.278Z,72.80
2018-02-07T03:31:02.542Z,72.80
2018-02-07T03:33:28.742Z,72.80
2018-02-07T03:35:54.938Z,72.80
2018-02-07T03:38:21.854Z,73.10
2018-02-07T03:40:48.274Z,72.80
2018-02-07T03:43:14.448Z,73.50
2018-02-07T03:45:41.399Z,73.40
2018-02-07T03:48:07.586Z,72.80
2018-02-07T03:50:33.769Z,73.60
2018-02-07T03:52:59.923Z,73.10
2018-02-07T03:55:26.151Z,73.70
2018-02-07T03:57:52.421Z,73.10
2018-02-07T04:00:19.575Z,73.60
2018-02-07T04:02:46.516Z,73.60
2018-02-07T04:05:13.508Z,73.70
2018-02-07T04:07:39.678Z,73.70
2018-02-07T04:10:05.868Z,73.60
2018-02-07T04:12:32.051Z,73.10
2018-02-07T04:14:58.982Z,73.60
2018-02-07T04:17:25.169Z,73.50
2018-02-07T04:19:51.328Z,73.50
2018-02-07T04:22:17.486Z,73.60
2018-02-07T04:24:46.384Z,73.00
2018-02-07T04:27:13.430Z,72.90
2018-02-07T04:29:40.355Z,72.50
2018-02-07T04:32:07.327Z,72.40
2018-02-07T04:34:34.239Z,72.30
2018-02-07T04:37:00.482Z,72.20
2018-02-07T04:39:27.399Z,72.20
2018-02-07T04:41:53.579Z,72.20
2018-02-07T04:44:20.505Z,72.50
2018-02-07T04:46:47.450Z,72.90
2018-02-07T04:49:14.350Z,72.80
2018-02-07T04:51:40.504Z,72.80
2018-02-07T04:54:06.666Z,72.80
2018-02-07T04:56:32.839Z,72.30
2018-02-07T04:58:59.242Z,72.30
2018-02-07T05:01:25.385Z,72.10
2018-02-07T05:03:51.946Z,72.20
2018-02-07T05:06:18.114Z,72.60
2018-02-07T05:08:45.042Z,73.10
2018-02-07T05:11:11.196Z,72.40
2018-02-07T05:13:37.414Z,72.30
2018-02-07T05:16:04.590Z,72.80
2018-02-07T05:18:30.739Z,72.30
2018-02-07T05:20:56.943Z,72.40
2018-02-07T05:23:23.096Z,72.90
2018-02-07T05:25:49.261Z,72.90
2018-02-07T05:28:15.430Z,72.90
2018-02-07T05:30:41.598Z,73.00
2018-02-07T05:33:07.801Z,72.80
2018-02-07T05:35:34.000Z,72.20
2018-02-07T05:38:00.240Z,71.90
2018-02-07T05:40:26.394Z,72.00
2018-02-07T05:42:52.569Z,70.50
2018-02-07T05:45:19.518Z,72.90
2018-02-07T05:47:46.466Z,73.00
2018-02-07T05:50:13.407Z,72.80
2018-02-07T05:52:40.286Z,72.90
2018-02-07T05:55:06.420Z,72.30
2018-02-07T05:57:32.581Z,72.80
2018-02-07T05:59:58.758Z,73.30
2018-02-07T06:02:24.927Z,73.30
2018-02-07T06:04:51.098Z,72.40
2018-02-07T06:07:18.011Z,73.40
2018-02-07T06:09:44.163Z,73.40
2018-02-07T06:12:11.053Z,72.60
2018-02-07T06:14:37.195Z,72.60
2018-02-07T06:17:03.340Z,72.90
2018-02-07T06:19:29.547Z,72.80
2018-02-07T06:21:55.700Z,73.30
2018-02-07T06:24:21.904Z,73.30
2018-02-07T06:26:48.073Z,73.30
2018-02-07T06:29:14.999Z,72.90
2018-02-07T06:31:41.199Z,72.30
2018-02-07T06:34:07.322Z,72.50
2018-02-07T06:36:33.585Z,72.80
2018-02-07T06:38:59.779Z,73.30
2018-02-07T06:41:25.986Z,72.80
2018-02-07T06:43:52.153Z,73.30
2018-02-07T06:46:18.328Z,73.20
2018-02-07T06:48:44.532Z,72.70
2018-02-07T06:51:11.500Z,73.30
2018-02-07T06:53:37.628Z,73.30
2018-02-07T06:56:03.810Z,73.30
2018-02-07T06:58:29.981Z,73.30
2018-02-07T07:00:56.860Z,73.30
2018-02-07T07:03:23.038Z,73.30
2018-02-07T07:05:49.966Z,73.30
2018-02-07T07:08:16.219Z,73.30
2018-02-07T07:10:43.155Z,73.00
2018-02-07T07:13:09.322Z,73.00
2018-02-07T07:15:35.492Z,73.00
2018-02-07T07:18:01.680Z,72.70
2018-02-07T07:20:27.804Z,72.70
2018-02-07T07:22:53.999Z,72.60
2018-02-07T07:25:20.879Z,71.90
2018-02-07T07:27:47.056Z,71.90
2018-02-07T07:30:13.273Z,72.00
2018-02-07T07:32:39.457Z,71.90
2018-02-07T07:35:05.640Z,71.30
2018-02-07T07:37:46.770Z,71.70
2018-02-07T07:42:40.860Z,71.30
2018-02-07T07:45:07.062Z,71.10
2018-02-07T07:47:33.988Z,71.40
2018-02-07T07:50:00.193Z,70.80
2018-02-07T07:52:26.510Z,71.40
2018-02-07T07:54:54.570Z,71.10
2018-02-07T07:57:20.746Z,71.10
2018-02-07T07:59:47.690Z,70.30
2018-02-07T08:02:13.833Z,70.80
2018-02-07T08:04:40.801Z,70.60
2018-02-07T08:07:07.339Z,70.00
2018-02-07T08:09:33.513Z,69.80
2018-02-07T08:11:59.823Z,69.60
2018-02-07T08:14:26.014Z,69.70
2018-02-07T08:16:52.912Z,70.20
2018-02-07T08:19:19.065Z,69.70
2018-02-07T08:21:45.291Z,69.50
2018-02-07T08:24:11.422Z,69.40
2018-02-07T08:26:38.507Z,70.20
2018-02-07T08:29:04.949Z,68.60
2018-02-07T08:31:31.311Z,68.30
2018-02-07T08:33:57.512Z,68.20
2018-02-07T08:36:23.655Z,68.60
2018-02-07T08:38:49.825Z,68.00
2018-02-07T08:41:16.752Z,67.40
2018-02-07T08:43:42.949Z,66.90
2018-02-07T08:46:09.096Z,66.30
2018-02-07T08:48:35.287Z,66.80
2018-02-07T08:51:01.485Z,65.50
2018-02-07T08:53:28.397Z,64.80
2018-02-07T08:55:54.574Z,63.70
2018-02-07T08:58:21.459Z,63.20
2018-02-07T09:00:47.660Z,61.90
2018-02-07T09:03:13.792Z,62.40
2018-02-07T09:05:39.975Z,61.30
2018-02-07T09:08:07.622Z,60.00
2018-02-07T09:10:33.746Z,59.90
2018-02-07T09:13:00.203Z,59.00
2018-02-07T09:15:26.461Z,57.40
2018-02-07T09:17:52.650Z,57.50
2018-02-07T09:20:18.865Z,55.50
2018-02-07T09:22:45.391Z,54.80
2018-02-07T09:25:11.560Z,54.10
2018-02-07T09:27:38.454Z,53.90
2018-02-07T09:30:04.671Z,52.60
2018-02-07T09:32:31.042Z,52.60
2018-02-07T09:34:57.246Z,51.40
2018-02-07T09:37:23.379Z,51.10
2018-02-07T09:39:49.553Z,51.30
2018-02-07T09:42:16.529Z,50.80
2018-02-07T09:44:42.735Z,50.70
2018-02-07T09:47:09.690Z,49.30
2018-02-07T09:49:35.883Z,49.30
2018-02-07T09:52:02.964Z,46.90
2018-02-07T09:54:29.874Z,46.20
2018-02-07T09:56:56.036Z,46.10
2018-02-07T09:59:23.166Z,47.00
2018-02-07T10:01:49.353Z,47.00
2018-02-07T10:04:15.518Z,47.50
2018-02-07T10:06:41.908Z,46.90
2018-02-07T10:09:08.058Z,47.70
2018-02-07T10:11:34.226Z,49.50
2018-02-07T10:14:01.164Z,47.20
2018-02-07T10:16:28.881Z,44.30
2018-02-07T10:18:55.062Z,44.40
2018-02-07T10:21:21.960Z,43.90
2018-02-07T10:23:48.136Z,44.60
2018-02-07T10:26:15.035Z,45.30
2018-02-07T10:28:41.186Z,43.10
2018-02-07T10:31:08.154Z,44.50
2018-02-07T10:33:35.119Z,44.40
2018-02-07T10:36:01.351Z,41.80
2018-02-07T10:38:27.533Z,42.00
2018-02-07T10:40:53.718Z,43.20
2018-02-07T10:43:19.929Z,44.00
2018-02-07T10:45:46.141Z,48.70
2018-02-07T10:48:13.047Z,43.90
2018-02-07T10:50:39.293Z,42.20
2018-02-07T10:53:06.926Z,41.70
2018-02-07T10:55:33.081Z,41.90
2018-02-07T10:58:00.436Z,41.10
2018-02-07T11:00:27.725Z,39.60
2018-02-07T11:02:55.014Z,42.00
2018-02-07T11:05:21.178Z,40.90
2018-02-07T11:07:47.368Z,41.20
2018-02-07T11:10:13.571Z,40.80
2018-02-07T11:12:39.728Z,40.70
2018-02-07T11:15:05.966Z,39.80
2018-02-07T11:17:32.130Z,39.20
2018-02-07T11:19:59.046Z,41.20
2018-02-07T11:22:25.223Z,40.70
2018-02-07T11:24:51.373Z,40.80
2018-02-07T11:27:17.578Z,39.50
2018-02-07T11:29:43.788Z,40.00
2018-02-07T11:32:10.733Z,40.10
2018-02-07T11:34:37.605Z,39.60
2018-02-07T11:37:03.838Z,39.50
2018-02-07T11:39:30.081Z,38.40
2018-02-07T11:41:56.266Z,38.40
2018-02-07T11:44:22.818Z,37.40
2018-02-07T11:46:49.711Z,37.10
2018-02-07T11:49:15.933Z,37.80
2018-02-07T11:51:42.946Z,39.30
2018-02-07T11:54:09.147Z,41.70
2018-02-07T11:56:35.321Z,45.30
2018-02-07T11:59:01.514Z,46.80
2018-02-07T12:01:28.415Z,48.60
2018-02-07T12:03:54.604Z,49.40
2018-02-07T12:06:20.807Z,55.10
2018-02-07T12:08:47.712Z,51.70
2018-02-07T12:11:14.263Z,51.60
2018-02-07T12:13:40.499Z,55.40
2018-02-07T12:16:06.694Z,51.60
2018-02-07T12:18:32.864Z,53.00
2018-02-07T12:20:59.034Z,53.10
2018-02-07T12:23:25.221Z,53.00
2018-02-07T12:25:51.381Z,52.10
2018-02-07T12:28:17.562Z,52.30
2018-02-07T12:30:44.182Z,52.20
2018-02-07T12:33:10.797Z,52.60
2018-02-07T12:35:36.928Z,52.60
2018-02-07T12:38:03.140Z,52.50
2018-02-07T12:40:29.300Z,52.20
2018-02-07T12:42:55.474Z,52.60
2018-02-07T12:45:22.399Z,52.80
2018-02-07T12:47:48.578Z,51.90
2018-02-07T12:50:14.741Z,51.50
2018-02-07T12:52:40.964Z,50.10
2018-02-07T12:55:07.130Z,50.40
2018-02-07T12:57:34.053Z,49.00
2018-02-07T13:00:00.250Z,48.90
2018-02-07T13:02:26.396Z,47.40
2018-02-07T13:04:52.602Z,46.90
2018-02-07T13:07:18.745Z,45.80
2018-02-07T13:09:44.922Z,44.90
2018-02-07T13:12:11.493Z,44.60
2018-02-07T13:14:37.640Z,44.10
2018-02-07T13:17:04.563Z,43.10
2018-02-07T13:19:30.762Z,42.90
2018-02-07T13:21:57.625Z,42.70
2018-02-07T13:24:23.770Z,42.30
2018-02-07T13:26:49.946Z,41.80
2018-02-07T13:29:16.902Z,42.70
2018-02-07T13:31:43.811Z,42.80
2018-02-07T13:34:10.010Z,46.80
2018-02-07T13:36:36.237Z,42.00
2018-02-07T13:39:02.492Z,40.60
2018-02-07T13:41:28.759Z,41.70
2018-02-07T13:43:56.209Z,43.30
2018-02-07T13:46:23.134Z,43.50
2018-02-07T13:48:49.345Z,41.80
2018-02-07T13:51:15.573Z,42.10
2018-02-07T13:53:41.875Z,43.50
2018-02-07T13:56:09.010Z,44.20
2018-02-07T13:58:35.180Z,45.80
2018-02-07T14:01:01.439Z,46.30
2018-02-07T14:03:29.191Z,47.40
2018-02-07T14:05:55.406Z,47.50
2018-02-07T14:08:21.629Z,47.90
2018-02-07T14:10:47.858Z,48.60
2018-02-07T14:13:14.045Z,48.60
2018-02-07T14:15:40.945Z,50.50
2018-02-07T14:18:07.181Z,49.70
2018-02-07T14:20:33.702Z,50.00
2018-02-07T14:22:59.922Z,50.50
2018-02-07T14:25:26.141Z,50.70
2018-02-07T14:27:52.299Z,51.00
2018-02-07T14:30:18.855Z,50.80
2018-02-07T14:32:45.023Z,51.30
2018-02-07T14:35:11.235Z,51.50
2018-02-07T14:37:39.431Z,51.30
2018-02-07T14:40:06.019Z,51.50
2018-02-07T14:42:32.240Z,51.50
2018-02-07T14:44:58.428Z,51.30
2018-02-07T14:47:27.344Z,50.90
2018-02-07T14:49:53.575Z,50.80
2018-02-07T14:52:19.824Z,50.20
2018-02-07T14:54:46.013Z,49.60
2018-02-07T14:57:13.565Z,49.20
2018-02-07T14:59:39.751Z,48.90
2018-02-07T15:02:06.669Z,50.10
2018-02-07T15:04:32.834Z,49.60
2018-02-07T15:06:59.411Z,49.40
2018-02-07T15:09:25.938Z,50.30
2018-02-07T15:11:52.502Z,50.30
2018-02-07T15:14:19.446Z,50.70
2018-02-07T15:16:46.018Z,51.00
2018-02-07T15:19:12.204Z,51.20
2018-02-07T15:21:38.387Z,51.40
2018-02-07T15:24:05.318Z,52.10
2018-02-07T15:26:33.011Z,52.40
2018-02-07T15:28:59.203Z,52.30
2018-02-07T15:31:25.711Z,52.60
2018-02-07T15:33:51.880Z,53.10
2018-02-07T15:36:18.792Z,53.80
2018-02-07T15:38:45.424Z,53.30
2018-02-07T15:41:11.601Z,58.50
2018-02-07T15:43:38.565Z,54.10
2018-02-07T15:46:05.120Z,56.10
2018-02-07T15:48:31.300Z,59.60
2018-02-07T15:50:57.466Z,63.10
2018-02-07T15:53:23.678Z,61.60
2018-02-07T15:55:52.440Z,54.40
2018-02-07T15:58:19.836Z,55.30
2018-02-07T16:00:46.048Z,59.80
2018-02-07T16:03:12.965Z,55.00
2018-02-07T16:05:39.910Z,55.20
2018-02-07T16:08:06.512Z,57.20
2018-02-07T16:10:33.443Z,55.40
2018-02-07T16:12:59.814Z,64.30
2018-02-07T16:15:26.386Z,56.00
2018-02-07T16:20:20.480Z,65.90
2018-02-07T16:22:48.405Z,56.80
2018-02-07T16:25:14.620Z,62.20
2018-02-07T16:27:40.840Z,62.30
2018-02-07T16:30:07.034Z,65.90
2018-02-07T16:32:33.997Z,57.50
2018-02-07T16:35:00.249Z,63.80
2018-02-07T16:37:27.203Z,59.00
2018-02-07T16:39:55.393Z,60.10
2018-02-07T16:42:22.019Z,61.50
2018-02-07T16:44:48.979Z,61.30
2018-02-07T16:47:30.094Z,62.80
2018-02-07T16:52:36.068Z,63.60
2018-02-07T16:55:03.012Z,63.30
2018-02-07T16:57:29.597Z,63.80
2018-02-07T16:59:56.555Z,64.50
2018-02-07T17:02:22.751Z,64.80
2018-02-07T17:04:48.955Z,65.50
2018-02-07T17:07:15.854Z,66.50
2018-02-07T17:09:42.026Z,66.10
2018-02-07T17:12:10.763Z,66.60
2018-02-07T17:14:36.956Z,66.40
2018-02-07T17:17:03.904Z,67.00
2018-02-07T17:19:30.114Z,66.80
2018-02-07T17:21:56.697Z,66.50
2018-02-07T17:24:22.881Z,66.80
2018-02-07T17:26:49.838Z,67.70
2018-02-07T17:29:16.360Z,67.30
2018-02-07T17:31:43.297Z,68.00
2018-02-07T17:34:09.490Z,67.40
2018-02-07T17:36:35.841Z,67.70
2018-02-07T17:39:02.143Z,67.80
2018-02-07T17:41:28.406Z,68.10
2018-02-07T17:43:54.651Z,68.40
2018-02-07T17:46:21.614Z,69.00
2018-02-07T17:48:47.842Z,68.30
2018-02-07T17:51:14.817Z,69.00
2018-02-07T17:53:41.042Z,68.50
2018-02-07T17:56:07.228Z,68.40
2018-02-07T17:58:33.440Z,68.50
2018-02-07T18:00:59.593Z,68.30
2018-02-07T18:03:26.611Z,68.90
2018-02-07T18:05:52.818Z,68.30
2018-02-07T18:08:19.040Z,68.60
2018-02-07T18:10:45.282Z,68.90
2018-02-07T18:13:11.516Z,68.80
2018-02-07T18:15:37.700Z,70.40
2018-02-07T18:18:03.906Z,69.10
2018-02-07T18:20:30.112Z,68.80
2018-02-07T18:22:56.358Z,69.20
2018-02-07T18:25:23.354Z,70.10
2018-02-07T18:27:49.534Z,69.60
2018-02-07T18:30:16.534Z,69.40
2018-02-07T18:32:42.729Z,69.60
2018-02-07T18:35:08.913Z,69.40
2018-02-07T18:37:35.140Z,69.70
2018-02-07T18:40:01.354Z,69.60
2018-02-07T18:42:27.530Z,69.60
2018-02-07T18:44:53.726Z,70.60
2018-02-07T18:47:19.938Z,69.90
2018-02-07T18:49:46.111Z,69.60
2018-02-07T18:52:13.100Z,70.20
2018-02-07T18:54:39.277Z,69.80
2018-02-07T18:57:06.218Z,70.70
2018-02-07T18:59:47.318Z,69.70
2018-02-07T19:02:14.343Z,70.30
2018-02-07T19:04:41.332Z,70.70
2018-02-07T19:07:08.292Z,70.10
2018-02-07T19:09:34.501Z,70.10
2018-02-07T19:12:00.681Z,70.00
2018-02-07T19:14:26.943Z,70.10
2018-02-07T19:16:53.824Z,70.50
2018-02-07T19:19:20.131Z,70.30
2018-02-07T19:21:46.352Z,70.00
2018-02-07T19:24:12.634Z,70.50
2018-02-07T19:26:38.852Z,70.60
2018-02-07T19:29:05.095Z,70.30
2018-02-07T19:31:31.373Z,70.50
2018-02-07T19:33:58.356Z,70.80
2018-02-07T19:36:25.301Z,70.10
2018-02-07T19:38:51.481Z,70.20
2018-02-07T19:41:18.057Z,70.60
2018-02-07T19:43:44.258Z,70.80
2018-02-07T19:46:10.520Z,71.30
2018-02-07T19:48:36.714Z,71.50
2018-02-07T19:51:03.706Z,72.10
2018-02-07T19:53:29.915Z,71.50
2018-02-07T19:55:56.128Z,71.50
2018-02-07T19:58:22.327Z,71.40
2018-02-07T20:00:48.567Z,71.40
2018-02-07T20:03:15.925Z,71.30
2018-02-07T20:05:42.921Z,72.00
2018-02-07T20:08:09.120Z,71.90
2018-02-07T20:10:35.357Z,71.50
2018-02-07T20:13:01.579Z,71.90
2018-02-07T20:15:27.805Z,71.50
2018-02-07T20:17:53.967Z,71.50
2018-02-07T20:20:20.204Z,71.40
2018-02-07T20:22:46.425Z,71.40
2018-02-07T20:25:12.648Z,71.50
2018-02-07T20:27:38.837Z,71.50
2018-02-07T20:30:05.852Z,71.80
2018-02-07T20:32:32.072Z,71.30
2018-02-07T20:34:58.251Z,71.20
2018-02-07T20:37:24.427Z,71.20
2018-02-07T20:39:51.417Z,71.80
2018-02-07T20:42:18.473Z,71.80
2018-02-07T20:44:44.658Z,71.40
2018-02-07T20:47:11.206Z,71.30
2018-02-07T20:49:38.073Z,71.40
2018-02-07T20:52:04.361Z,71.60
2018-02-07T20:54:31.013Z,71.30
2018-02-07T20:56:57.221Z,71.70
2018-02-07T20:59:23.682Z,71.90
2018-02-07T21:01:50.703Z,71.70
2018-02-07T21:04:16.935Z,70.80
2018-02-07T21:06:43.172Z,70.40
2018-02-07T21:09:09.371Z,70.10
2018-02-07T21:11:35.653Z,70.00
2018-02-07T21:14:01.844Z,69.70
2018-02-07T21:16:28.088Z,69.50
2018-02-07T21:18:54.271Z,69.60
2018-02-07T21:21:20.455Z,69.60
2018-02-07T21:24:01.610Z,69.80
2018-02-07T21:26:27.840Z,70.10
2018-02-07T21:28:54.042Z,69.40
2018-02-07T21:31:20.733Z,69.10
2018-02-07T21:33:47.034Z,69.10
2018-02-07T21:36:13.248Z,69.50
2018-02-07T21:38:39.846Z,69.40
2018-02-07T21:41:06.820Z,70.30
2018-02-07T21:43:34.023Z,70.00
2018-02-07T21:46:00.295Z,69.80
2018-02-07T21:48:26.466Z,70.00
2018-02-07T21:50:52.654Z,83.50
2018-02-07T21:53:18.854Z,70.10
2018-02-07T21:55:45.020Z,69.60
2018-02-07T21:58:11.214Z,69.30
2018-02-07T22:00:38.139Z,70.70
2018-02-07T22:03:04.340Z,69.50
2018-02-07T22:05:30.575Z,69.40
2018-02-07T22:07:56.746Z,69.30
2018-02-07T22:10:23.813Z,69.90
2018-02-07T22:12:50.777Z,69.70
2018-02-07T22:15:17.018Z,69.50
2018-02-07T22:17:43.217Z,69.40
2018-02-07T22:20:09.420Z,69.30
2018-02-07T22:22:35.623Z,69.90
2018-02-07T22:25:01.872Z,70.90
2018-02-07T22:27:28.072Z,71.00
2018-02-07T22:29:54.296Z,71.50
2018-02-07T22:32:20.555Z,71.10
2018-02-07T22:34:48.239Z,71.50
2018-02-07T22:37:15.156Z,71.40
2018-02-07T22:39:41.392Z,71.10
2018-02-07T22:42:07.601Z,71.50
2018-02-07T22:44:33.792Z,70.90
2018-02-07T22:46:59.957Z,70.60
2018-02-07T22:49:26.143Z,70.20
2018-02-07T22:51:52.334Z,70.00
2018-02-07T22:54:18.537Z,69.80
2018-02-07T22:56:44.779Z,69.60
2018-02-07T22:59:10.996Z,70.00
2018-02-07T23:01:37.162Z,69.80
2018-02-07T23:04:03.353Z,69.80
2018-02-07T23:06:29.561Z,69.80
2018-02-07T23:08:55.794Z,68.80
2018-02-07T23:11:22.695Z,69.40
2018-02-07T23:13:49.663Z,69.60
2018-02-07T23:16:15.842Z,68.50
2018-02-07T23:18:42.007Z,69.10
2018-02-07T23:21:08.883Z,69.10
2018-02-07T23:23:35.109Z,69.10
2018-02-07T23:26:01.305Z,68.60
2018-02-07T23:28:28.210Z,69.30
2018-02-07T23:30:54.382Z,69.30
2018-02-07T23:33:21.301Z,69.60
2018-02-07T23:35:47.510Z,69.00
2018-02-07T23:38:13.713Z,68.90
2018-02-07T23:40:39.885Z,68.60
2018-02-07T23:43:06.064Z,69.10
2018-02-07T23:45:32.225Z,69.00
2018-02-07T23:47:58.364Z,68.30
2018-02-07T23:50:24.546Z,68.60
2018-02-07T23:52:50.699Z,68.30
2018-02-07T23:55:16.923Z,68.70
2018-02-07T23:57:43.109Z,69.00
